sensor_id;sensor_type;location;lat;lon;timestamp;P1;durP1;ratioP1;P2;durP2;ratioP2
11986;SDS011;6053;51.382;6.768;2023-01-15T00:02:08;0.70;;;0.70;;
11986;SDS011;6053;51.382;6.768;2023-01-15T00:04:38;1.50;;;0.70;;
11986;SDS011;6053;51.382;6.768;2023-01-15T00:07:06;0.70;;;0.63;;
11986;SDS011;6053;51.382;6.768;2023-01-15T00:09:35;1.55;;;0.95;;
11986;SDS011;6053;51.382;6.768;2023-01-15T00:12:03;0.98;;;0.73;;
11986;SDS011;6053;51.382;6.768;2023-01-15T00:14:32;1.40;;;0.70;;
11986;SDS011;6053;51.382;6.768;2023-01-15T00:17:01;1.33;;;1.10;;
11986;SDS011;6053;51.382;6.768;2023-01-15T00:19:31;2.10;;;1.35;;
11986;SDS011;6053;51.382;6.768;2023-01-15T00:21:59;0.75;;;0.75;;
11986;SDS011;6053;51.382;6.768;2023-01-15T00:24:28;0.77;;;0.77;;
11986;SDS011;6053;51.382;6.768;2023-01-15T00:27:10;0.60;;;0.60;;
11986;SDS011;6053;51.382;6.768;2023-01-15T00:29:56;2.10;;;1.23;;
11986;SDS011;6053;51.382;6.768;2023-01-15T00:32:25;1.15;;;0.65;;
11986;SDS011;6053;51.382;6.768;2023-01-15T00:34:56;2.10;;;0.73;;
11986;SDS011;6053;51.382;6.768;2023-01-15T00:37:25;2.25;;;0.98;;
11986;SDS011;6053;51.382;6.768;2023-01-15T00:39:54;2.78;;;0.90;;
11986;SDS011;6053;51.382;6.768;2023-01-15T00:42:22;1.40;;;0.77;;
11986;SDS011;6053;51.382;6.768;2023-01-15T00:44:51;0.40;;;0.40;;
11986;SDS011;6053;51.382;6.768;2023-01-15T00:47:19;0.50;;;0.50;;
11986;SDS011;6053;51.382;6.768;2023-01-15T00:49:48;0.65;;;0.45;;
11986;SDS011;6053;51.382;6.768;2023-01-15T00:52:18;0.57;;;0.52;;
11986;SDS011;6053;51.382;6.768;2023-01-15T00:54:46;0.73;;;0.40;;
11986;SDS011;6053;51.382;6.768;2023-01-15T00:57:15;1.83;;;0.70;;
11986;SDS011;6053;51.382;6.768;2023-01-15T00:59:43;0.80;;;0.70;;
11986;SDS011;6053;51.382;6.768;2023-01-15T01:02:12;0.60;;;0.50;;
11986;SDS011;6053;51.382;6.768;2023-01-15T01:04:41;0.32;;;0.32;;
11986;SDS011;6053;51.382;6.768;2023-01-15T01:07:09;0.38;;;0.38;;
11986;SDS011;6053;51.382;6.768;2023-01-15T01:09:39;0.28;;;0.28;;
11986;SDS011;6053;51.382;6.768;2023-01-15T01:12:08;0.43;;;0.43;;
11986;SDS011;6053;51.382;6.768;2023-01-15T01:14:37;1.15;;;0.57;;
11986;SDS011;6053;51.382;6.768;2023-01-15T01:17:06;0.53;;;0.40;;
11986;SDS011;6053;51.382;6.768;2023-01-15T01:19:35;0.65;;;0.38;;
11986;SDS011;6053;51.382;6.768;2023-01-15T01:22:03;0.30;;;0.30;;
11986;SDS011;6053;51.382;6.768;2023-01-15T01:24:32;0.43;;;0.32;;
11986;SDS011;6053;51.382;6.768;2023-01-15T01:27:02;0.40;;;0.40;;
11986;SDS011;6053;51.382;6.768;2023-01-15T01:29:30;0.60;;;0.40;;
11986;SDS011;6053;51.382;6.768;2023-01-15T01:31:59;0.52;;;0.52;;
11986;SDS011;6053;51.382;6.768;2023-01-15T01:34:27;0.70;;;0.63;;
11986;SDS011;6053;51.382;6.768;2023-01-15T01:36:57;0.60;;;0.40;;
11986;SDS011;6053;51.382;6.768;2023-01-15T01:39:25;0.40;;;0.40;;
11986;SDS011;6053;51.382;6.768;2023-01-15T01:41:54;0.30;;;0.30;;
11986;SDS011;6053;51.382;6.768;2023-01-15T01:47:30;0.50;;;0.50;;
11986;SDS011;6053;51.382;6.768;2023-01-15T01:50:00;0.90;;;0.40;;
11986;SDS011;6053;51.382;6.768;2023-01-15T01:52:32;0.30;;;0.30;;
11986;SDS011;6053;51.382;6.768;2023-01-15T01:55:05;0.35;;;0.35;;
11986;SDS011;6053;51.382;6.768;2023-01-15T01:57:35;1.20;;;0.57;;
11986;SDS011;6053;51.382;6.768;2023-01-15T02:00:07;0.30;;;0.30;;
11986;SDS011;6053;51.382;6.768;2023-01-15T02:02:38;0.50;;;0.50;;
11986;SDS011;6053;51.382;6.768;2023-01-15T02:05:10;1.60;;;0.47;;
11986;SDS011;6053;51.382;6.768;2023-01-15T02:07:42;0.90;;;0.50;;
11986;SDS011;6053;51.382;6.768;2023-01-15T02:10:13;0.80;;;0.52;;
11986;SDS011;6053;51.382;6.768;2023-01-15T02:12:44;0.55;;;0.55;;
11986;SDS011;6053;51.382;6.768;2023-01-15T02:15:20;0.60;;;0.47;;
11986;SDS011;6053;51.382;6.768;2023-01-15T02:17:58;1.20;;;0.50;;
11986;SDS011;6053;51.382;6.768;2023-01-15T02:20:34;0.40;;;0.40;;
11986;SDS011;6053;51.382;6.768;2023-01-15T02:23:19;0.38;;;0.38;;
11986;SDS011;6053;51.382;6.768;2023-01-15T02:32:30;0.60;;;0.60;;
11986;SDS011;6053;51.382;6.768;2023-01-15T02:35:06;1.08;;;0.70;;
11986;SDS011;6053;51.382;6.768;2023-01-15T02:37:42;0.30;;;0.30;;
11986;SDS011;6053;51.382;6.768;2023-01-15T02:40:16;0.60;;;0.50;;
11986;SDS011;6053;51.382;6.768;2023-01-15T02:42:47;0.20;;;0.20;;
11986;SDS011;6053;51.382;6.768;2023-01-15T02:45:19;0.65;;;0.40;;
11986;SDS011;6053;51.382;6.768;2023-01-15T02:47:53;0.40;;;0.40;;
11986;SDS011;6053;51.382;6.768;2023-01-15T02:50:26;1.25;;;0.40;;
11986;SDS011;6053;51.382;6.768;2023-01-15T02:52:59;0.40;;;0.40;;
11986;SDS011;6053;51.382;6.768;2023-01-15T02:55:34;0.68;;;0.45;;
11986;SDS011;6053;51.382;6.768;2023-01-15T02:58:08;0.90;;;0.60;;
11986;SDS011;6053;51.382;6.768;2023-01-15T03:00:43;0.30;;;0.30;;
11986;SDS011;6053;51.382;6.768;2023-01-15T03:03:17;1.10;;;0.32;;
11986;SDS011;6053;51.382;6.768;2023-01-15T03:05:51;0.50;;;0.50;;
11986;SDS011;6053;51.382;6.768;2023-01-15T03:08:24;0.82;;;0.50;;
11986;SDS011;6053;51.382;6.768;2023-01-15T03:10:54;0.40;;;0.40;;
11986;SDS011;6053;51.382;6.768;2023-01-15T03:13:31;0.30;;;0.30;;
11986;SDS011;6053;51.382;6.768;2023-01-15T03:16:10;0.30;;;0.30;;
11986;SDS011;6053;51.382;6.768;2023-01-15T03:19:05;0.40;;;0.40;;
11986;SDS011;6053;51.382;6.768;2023-01-15T03:21:43;0.52;;;0.43;;
11986;SDS011;6053;51.382;6.768;2023-01-15T03:24:17;1.38;;;0.50;;
11986;SDS011;6053;51.382;6.768;2023-01-15T03:26:51;1.58;;;0.50;;
11986;SDS011;6053;51.382;6.768;2023-01-15T03:29:21;1.17;;;0.70;;
11986;SDS011;6053;51.382;6.768;2023-01-15T03:31:53;0.68;;;0.65;;
11986;SDS011;6053;51.382;6.768;2023-01-15T03:34:22;0.40;;;0.40;;
11986;SDS011;6053;51.382;6.768;2023-01-15T03:36:51;1.50;;;0.60;;
11986;SDS011;6053;51.382;6.768;2023-01-15T03:39:20;0.77;;;0.60;;
11986;SDS011;6053;51.382;6.768;2023-01-15T03:41:50;0.60;;;0.35;;
11986;SDS011;6053;51.382;6.768;2023-01-15T03:44:31;0.97;;;0.53;;
11986;SDS011;6053;51.382;6.768;2023-01-15T03:47:11;0.55;;;0.40;;
11986;SDS011;6053;51.382;6.768;2023-01-15T03:49:51;0.47;;;0.47;;
11986;SDS011;6053;51.382;6.768;2023-01-15T03:52:29;0.70;;;0.63;;
11986;SDS011;6053;51.382;6.768;2023-01-15T03:55:09;0.30;;;0.30;;
11986;SDS011;6053;51.382;6.768;2023-01-15T03:57:42;0.60;;;0.45;;
11986;SDS011;6053;51.382;6.768;2023-01-15T04:00:18;0.60;;;0.55;;
11986;SDS011;6053;51.382;6.768;2023-01-15T04:02:53;0.47;;;0.40;;
11986;SDS011;6053;51.382;6.768;2023-01-15T04:05:23;1.30;;;0.77;;
11986;SDS011;6053;51.382;6.768;2023-01-15T04:07:54;1.20;;;0.63;;
11986;SDS011;6053;51.382;6.768;2023-01-15T04:10:24;0.40;;;0.40;;
11986;SDS011;6053;51.382;6.768;2023-01-15T04:12:53;0.63;;;0.57;;
11986;SDS011;6053;51.382;6.768;2023-01-15T04:15:22;0.63;;;0.53;;
11986;SDS011;6053;51.382;6.768;2023-01-15T04:17:50;0.70;;;0.60;;
11986;SDS011;6053;51.382;6.768;2023-01-15T04:20:20;0.57;;;0.57;;
11986;SDS011;6053;51.382;6.768;2023-01-15T04:22:49;0.45;;;0.45;;
11986;SDS011;6053;51.382;6.768;2023-01-15T04:25:17;0.68;;;0.55;;
11986;SDS011;6053;51.382;6.768;2023-01-15T04:27:46;0.63;;;0.47;;
11986;SDS011;6053;51.382;6.768;2023-01-15T04:30:15;0.47;;;0.47;;
11986;SDS011;6053;51.382;6.768;2023-01-15T04:32:47;0.38;;;0.38;;
11986;SDS011;6053;51.382;6.768;2023-01-15T04:35:17;0.40;;;0.40;;
11986;SDS011;6053;51.382;6.768;2023-01-15T04:37:46;1.20;;;0.60;;
11986;SDS011;6053;51.382;6.768;2023-01-15T04:40:15;1.77;;;0.80;;
11986;SDS011;6053;51.382;6.768;2023-01-15T04:42:58;0.52;;;0.30;;
11986;SDS011;6053;51.382;6.768;2023-01-15T04:45:43;1.80;;;0.80;;
11986;SDS011;6053;51.382;6.768;2023-01-15T04:48:12;1.55;;;0.90;;
11986;SDS011;6053;51.382;6.768;2023-01-15T04:50:42;0.57;;;0.40;;
11986;SDS011;6053;51.382;6.768;2023-01-15T04:53:10;0.70;;;0.38;;
11986;SDS011;6053;51.382;6.768;2023-01-15T04:55:39;1.83;;;0.90;;
11986;SDS011;6053;51.382;6.768;2023-01-15T04:58:07;0.38;;;0.38;;
11986;SDS011;6053;51.382;6.768;2023-01-15T05:00:36;2.72;;;0.82;;
11986;SDS011;6053;51.382;6.768;2023-01-15T05:03:04;1.55;;;0.80;;
11986;SDS011;6053;51.382;6.768;2023-01-15T05:05:33;1.30;;;0.97;;
11986;SDS011;6053;51.382;6.768;2023-01-15T05:08:03;0.57;;;0.55;;
11986;SDS011;6053;51.382;6.768;2023-01-15T05:10:31;1.25;;;0.52;;
11986;SDS011;6053;51.382;6.768;2023-01-15T05:12:59;0.80;;;0.70;;
11986;SDS011;6053;51.382;6.768;2023-01-15T05:15:28;0.60;;;0.53;;
11986;SDS011;6053;51.382;6.768;2023-01-15T05:17:57;0.93;;;0.60;;
11986;SDS011;6053;51.382;6.768;2023-01-15T05:20:25;0.60;;;0.60;;
11986;SDS011;6053;51.382;6.768;2023-01-15T05:22:54;1.30;;;0.80;;
11986;SDS011;6053;51.382;6.768;2023-01-15T05:25:24;2.20;;;1.10;;
11986;SDS011;6053;51.382;6.768;2023-01-15T05:27:52;2.20;;;0.90;;
11986;SDS011;6053;51.382;6.768;2023-01-15T05:30:21;1.00;;;0.65;;
11986;SDS011;6053;51.382;6.768;2023-01-15T05:32:49;1.30;;;0.73;;
11986;SDS011;6053;51.382;6.768;2023-01-15T05:35:18;3.30;;;1.00;;
11986;SDS011;6053;51.382;6.768;2023-01-15T05:37:46;3.03;;;1.00;;
11986;SDS011;6053;51.382;6.768;2023-01-15T05:40:14;2.15;;;0.85;;
11986;SDS011;6053;51.382;6.768;2023-01-15T05:42:45;2.50;;;0.82;;
11986;SDS011;6053;51.382;6.768;2023-01-15T05:45:13;3.70;;;0.80;;
11986;SDS011;6053;51.382;6.768;2023-01-15T05:47:42;0.80;;;0.60;;
11986;SDS011;6053;51.382;6.768;2023-01-15T05:50:10;3.53;;;1.10;;
11986;SDS011;6053;51.382;6.768;2023-01-15T05:52:39;1.10;;;0.82;;
11986;SDS011;6053;51.382;6.768;2023-01-15T05:55:07;1.60;;;0.90;;
11986;SDS011;6053;51.382;6.768;2023-01-15T05:57:36;2.33;;;0.93;;
11986;SDS011;6053;51.382;6.768;2023-01-15T06:00:07;1.13;;;0.87;;
11986;SDS011;6053;51.382;6.768;2023-01-15T06:02:36;1.88;;;0.82;;
11986;SDS011;6053;51.382;6.768;2023-01-15T06:05:05;3.33;;;1.02;;
11986;SDS011;6053;51.382;6.768;2023-01-15T06:07:34;3.40;;;1.30;;
11986;SDS011;6053;51.382;6.768;2023-01-15T06:10:03;3.10;;;0.95;;
11986;SDS011;6053;51.382;6.768;2023-01-15T06:12:32;0.70;;;0.70;;
11986;SDS011;6053;51.382;6.768;2023-01-15T06:15:00;4.28;;;1.30;;
11986;SDS011;6053;51.382;6.768;2023-01-15T06:17:29;0.60;;;0.60;;
11986;SDS011;6053;51.382;6.768;2023-01-15T06:19:58;2.80;;;0.93;;
11986;SDS011;6053;51.382;6.768;2023-01-15T06:22:26;1.60;;;0.90;;
11986;SDS011;6053;51.382;6.768;2023-01-15T06:24:55;1.30;;;0.80;;
11986;SDS011;6053;51.382;6.768;2023-01-15T06:27:23;2.90;;;1.00;;
11986;SDS011;6053;51.382;6.768;2023-01-15T06:29:52;1.47;;;0.70;;
11986;SDS011;6053;51.382;6.768;2023-01-15T06:32:23;3.40;;;1.00;;
11986;SDS011;6053;51.382;6.768;2023-01-15T06:34:53;4.22;;;1.05;;
11986;SDS011;6053;51.382;6.768;2023-01-15T06:37:22;2.60;;;0.90;;
11986;SDS011;6053;51.382;6.768;2023-01-15T06:39:50;0.60;;;0.60;;
11986;SDS011;6053;51.382;6.768;2023-01-15T06:42:18;0.65;;;0.63;;
11986;SDS011;6053;51.382;6.768;2023-01-15T06:45:05;2.10;;;0.80;;
11986;SDS011;6053;51.382;6.768;2023-01-15T06:47:52;1.85;;;1.00;;
11986;SDS011;6053;51.382;6.768;2023-01-15T06:50:22;1.60;;;1.05;;
11986;SDS011;6053;51.382;6.768;2023-01-15T06:52:51;1.75;;;1.00;;
11986;SDS011;6053;51.382;6.768;2023-01-15T06:55:19;2.22;;;0.93;;
11986;SDS011;6053;51.382;6.768;2023-01-15T06:57:49;3.03;;;1.33;;
11986;SDS011;6053;51.382;6.768;2023-01-15T07:00:17;2.80;;;1.02;;
11986;SDS011;6053;51.382;6.768;2023-01-15T07:02:46;1.92;;;0.98;;
11986;SDS011;6053;51.382;6.768;2023-01-15T07:05:15;5.10;;;1.20;;
11986;SDS011;6053;51.382;6.768;2023-01-15T07:07:45;2.70;;;0.88;;
11986;SDS011;6053;51.382;6.768;2023-01-15T07:10:13;1.23;;;0.65;;
11986;SDS011;6053;51.382;6.768;2023-01-15T07:12:42;2.38;;;1.00;;
11986;SDS011;6053;51.382;6.768;2023-01-15T07:15:10;2.75;;;1.00;;
11986;SDS011;6053;51.382;6.768;2023-01-15T07:17:39;1.70;;;0.90;;
11986;SDS011;6053;51.382;6.768;2023-01-15T07:20:07;1.75;;;1.00;;
11986;SDS011;6053;51.382;6.768;2023-01-15T07:22:37;2.80;;;0.70;;
11986;SDS011;6053;51.382;6.768;2023-01-15T07:25:08;2.33;;;1.08;;
11986;SDS011;6053;51.382;6.768;2023-01-15T07:27:36;2.33;;;0.77;;
11986;SDS011;6053;51.382;6.768;2023-01-15T07:30:05;1.77;;;0.70;;
11986;SDS011;6053;51.382;6.768;2023-01-15T07:32:35;1.42;;;0.80;;
11986;SDS011;6053;51.382;6.768;2023-01-15T07:35:04;1.50;;;0.90;;
11986;SDS011;6053;51.382;6.768;2023-01-15T07:37:32;2.65;;;0.80;;
11986;SDS011;6053;51.382;6.768;2023-01-15T07:40:00;2.72;;;1.00;;
11986;SDS011;6053;51.382;6.768;2023-01-15T07:42:30;3.33;;;1.00;;
11986;SDS011;6053;51.382;6.768;2023-01-15T07:45:16;1.00;;;0.80;;
11986;SDS011;6053;51.382;6.768;2023-01-15T07:48:04;1.73;;;0.87;;
11986;SDS011;6053;51.382;6.768;2023-01-15T07:50:52;1.13;;;0.90;;
11986;SDS011;6053;51.382;6.768;2023-01-15T07:53:21;0.40;;;0.40;;
11986;SDS011;6053;51.382;6.768;2023-01-15T07:55:49;2.08;;;1.00;;
11986;SDS011;6053;51.382;6.768;2023-01-15T07:58:19;2.75;;;0.95;;
11986;SDS011;6053;51.382;6.768;2023-01-15T08:00:47;2.53;;;1.10;;
11986;SDS011;6053;51.382;6.768;2023-01-15T08:03:16;2.15;;;1.00;;
11986;SDS011;6053;51.382;6.768;2023-01-15T08:05:44;2.08;;;0.95;;
11986;SDS011;6053;51.382;6.768;2023-01-15T08:08:15;1.35;;;0.80;;
11986;SDS011;6053;51.382;6.768;2023-01-15T08:10:44;2.15;;;1.05;;
11986;SDS011;6053;51.382;6.768;2023-01-15T08:13:28;1.23;;;0.75;;
11986;SDS011;6053;51.382;6.768;2023-01-15T08:16:14;2.60;;;0.90;;
11986;SDS011;6053;51.382;6.768;2023-01-15T08:18:43;2.63;;;1.20;;
11986;SDS011;6053;51.382;6.768;2023-01-15T08:21:12;1.85;;;1.00;;
11986;SDS011;6053;51.382;6.768;2023-01-15T08:23:41;2.15;;;0.93;;
11986;SDS011;6053;51.382;6.768;2023-01-15T08:26:11;2.22;;;1.05;;
11986;SDS011;6053;51.382;6.768;2023-01-15T08:28:41;0.98;;;0.82;;
11986;SDS011;6053;51.382;6.768;2023-01-15T08:31:10;2.20;;;0.90;;
11986;SDS011;6053;51.382;6.768;2023-01-15T08:33:38;1.60;;;0.90;;
11986;SDS011;6053;51.382;6.768;2023-01-15T08:36:07;2.80;;;0.75;;
11986;SDS011;6053;51.382;6.768;2023-01-15T08:38:36;2.95;;;1.10;;
11986;SDS011;6053;51.382;6.768;2023-01-15T08:41:04;2.33;;;1.00;;
11986;SDS011;6053;51.382;6.768;2023-01-15T08:43:34;1.50;;;0.90;;
11986;SDS011;6053;51.382;6.768;2023-01-15T08:46:04;0.87;;;0.60;;
11986;SDS011;6053;51.382;6.768;2023-01-15T08:48:33;0.50;;;0.50;;
11986;SDS011;6053;51.382;6.768;2023-01-15T08:51:02;3.10;;;0.82;;
11986;SDS011;6053;51.382;6.768;2023-01-15T08:53:31;1.50;;;0.82;;
11986;SDS011;6053;51.382;6.768;2023-01-15T08:56:00;1.38;;;0.88;;
11986;SDS011;6053;51.382;6.768;2023-01-15T08:58:29;1.88;;;0.77;;
11986;SDS011;6053;51.382;6.768;2023-01-15T09:01:04;1.42;;;1.00;;
11986;SDS011;6053;51.382;6.768;2023-01-15T09:03:33;0.82;;;0.77;;
11986;SDS011;6053;51.382;6.768;2023-01-15T09:06:02;1.30;;;0.80;;
11986;SDS011;6053;51.382;6.768;2023-01-15T09:08:31;2.10;;;0.90;;
11986;SDS011;6053;51.382;6.768;2023-01-15T09:11:00;1.27;;;1.00;;
11986;SDS011;6053;51.382;6.768;2023-01-15T09:13:30;0.75;;;0.60;;
11986;SDS011;6053;51.382;6.768;2023-01-15T09:15:59;1.83;;;0.70;;
11986;SDS011;6053;51.382;6.768;2023-01-15T09:18:30;2.47;;;0.95;;
11986;SDS011;6053;51.382;6.768;2023-01-15T09:21:01;2.03;;;1.00;;
11986;SDS011;6053;51.382;6.768;2023-01-15T09:23:29;3.17;;;0.90;;
11986;SDS011;6053;51.382;6.768;2023-01-15T09:25:59;1.00;;;0.90;;
11986;SDS011;6053;51.382;6.768;2023-01-15T09:28:30;0.80;;;0.80;;
11986;SDS011;6053;51.382;6.768;2023-01-15T09:31:00;1.80;;;1.00;;
11986;SDS011;6053;51.382;6.768;2023-01-15T09:33:30;1.88;;;1.10;;
11986;SDS011;6053;51.382;6.768;2023-01-15T09:35:58;1.60;;;0.90;;
11986;SDS011;6053;51.382;6.768;2023-01-15T09:38:27;1.42;;;0.93;;
11986;SDS011;6053;51.382;6.768;2023-01-15T09:40:56;4.72;;;0.98;;
11986;SDS011;6053;51.382;6.768;2023-01-15T09:43:35;2.40;;;0.90;;
11986;SDS011;6053;51.382;6.768;2023-01-15T09:46:17;0.90;;;0.85;;
11986;SDS011;6053;51.382;6.768;2023-01-15T09:48:53;3.23;;;0.97;;
11986;SDS011;6053;51.382;6.768;2023-01-15T09:51:33;3.30;;;1.00;;
11986;SDS011;6053;51.382;6.768;2023-01-15T09:54:16;0.90;;;0.60;;
11986;SDS011;6053;51.382;6.768;2023-01-15T09:56:52;2.22;;;1.13;;
11986;SDS011;6053;51.382;6.768;2023-01-15T09:59:25;1.95;;;1.00;;
11986;SDS011;6053;51.382;6.768;2023-01-15T10:02:00;2.42;;;1.10;;
11986;SDS011;6053;51.382;6.768;2023-01-15T10:04:41;2.83;;;1.10;;
11986;SDS011;6053;51.382;6.768;2023-01-15T10:07:15;3.80;;;1.13;;
11986;SDS011;6053;51.382;6.768;2023-01-15T10:09:57;2.10;;;1.45;;
11986;SDS011;6053;51.382;6.768;2023-01-15T10:12:29;2.93;;;1.20;;
11986;SDS011;6053;51.382;6.768;2023-01-15T10:15:03;1.92;;;1.20;;
11986;SDS011;6053;51.382;6.768;2023-01-15T10:17:42;1.70;;;1.00;;
11986;SDS011;6053;51.382;6.768;2023-01-15T10:20:28;2.17;;;1.20;;
11986;SDS011;6053;51.382;6.768;2023-01-15T10:23:19;4.95;;;1.10;;
11986;SDS011;6053;51.382;6.768;2023-01-15T10:26:00;1.05;;;0.88;;
11986;SDS011;6053;51.382;6.768;2023-01-15T10:28:39;2.72;;;1.13;;
11986;SDS011;6053;51.382;6.768;2023-01-15T10:31:28;2.00;;;0.97;;
11986;SDS011;6053;51.382;6.768;2023-01-15T10:34:24;2.58;;;1.15;;
11986;SDS011;6053;51.382;6.768;2023-01-15T10:37:15;5.65;;;1.60;;
11986;SDS011;6053;51.382;6.768;2023-01-15T10:39:51;2.08;;;0.98;;
11986;SDS011;6053;51.382;6.768;2023-01-15T10:42:41;2.00;;;0.93;;
11986;SDS011;6053;51.382;6.768;2023-01-15T10:45:19;2.95;;;1.20;;
11986;SDS011;6053;51.382;6.768;2023-01-15T10:47:52;3.73;;;1.20;;
11986;SDS011;6053;51.382;6.768;2023-01-15T10:50:25;3.33;;;1.10;;
11986;SDS011;6053;51.382;6.768;2023-01-15T10:53:01;2.38;;;1.10;;
11986;SDS011;6053;51.382;6.768;2023-01-15T10:55:35;3.03;;;1.05;;
11986;SDS011;6053;51.382;6.768;2023-01-15T10:58:11;3.83;;;1.13;;
11986;SDS011;6053;51.382;6.768;2023-01-15T11:00:57;3.40;;;1.07;;
11986;SDS011;6053;51.382;6.768;2023-01-15T11:03:31;4.05;;;1.50;;
11986;SDS011;6053;51.382;6.768;2023-01-15T11:06:03;3.88;;;1.27;;
11986;SDS011;6053;51.382;6.768;2023-01-15T11:08:40;2.30;;;1.00;;
11986;SDS011;6053;51.382;6.768;2023-01-15T11:11:32;1.30;;;1.00;;
11986;SDS011;6053;51.382;6.768;2023-01-15T11:14:30;3.73;;;1.20;;
11986;SDS011;6053;51.382;6.768;2023-01-15T11:17:20;2.50;;;0.98;;
11986;SDS011;6053;51.382;6.768;2023-01-15T11:20:13;2.70;;;0.88;;
11986;SDS011;6053;51.382;6.768;2023-01-15T11:22:54;2.92;;;1.30;;
11986;SDS011;6053;51.382;6.768;2023-01-15T11:25:25;3.33;;;1.00;;
11986;SDS011;6053;51.382;6.768;2023-01-15T11:27:56;2.40;;;1.10;;
11986;SDS011;6053;51.382;6.768;2023-01-15T11:30:28;4.72;;;1.40;;
11986;SDS011;6053;51.382;6.768;2023-01-15T11:32:59;2.90;;;1.10;;
11986;SDS011;6053;51.382;6.768;2023-01-15T11:35:29;3.50;;;1.07;;
11986;SDS011;6053;51.382;6.768;2023-01-15T11:38:03;4.50;;;1.13;;
11986;SDS011;6053;51.382;6.768;2023-01-15T11:40:34;2.75;;;1.10;;
11986;SDS011;6053;51.382;6.768;2023-01-15T11:43:02;3.30;;;1.30;;
11986;SDS011;6053;51.382;6.768;2023-01-15T11:46:01;3.47;;;1.13;;
11986;SDS011;6053;51.382;6.768;2023-01-15T11:48:47;2.33;;;1.13;;
11986;SDS011;6053;51.382;6.768;2023-01-15T11:51:34;1.90;;;1.00;;
11986;SDS011;6053;51.382;6.768;2023-01-15T11:54:07;2.58;;;1.17;;
11986;SDS011;6053;51.382;6.768;2023-01-15T11:56:41;1.92;;;0.90;;
11986;SDS011;6053;51.382;6.768;2023-01-15T11:59:12;2.55;;;1.00;;
11986;SDS011;6053;51.382;6.768;2023-01-15T12:01:46;1.43;;;0.80;;
11986;SDS011;6053;51.382;6.768;2023-01-15T12:04:28;2.83;;;0.95;;
11986;SDS011;6053;51.382;6.768;2023-01-15T12:07:01;2.38;;;1.10;;
11986;SDS011;6053;51.382;6.768;2023-01-15T12:09:37;2.60;;;1.10;;
11986;SDS011;6053;51.382;6.768;2023-01-15T12:12:21;2.97;;;1.13;;
11986;SDS011;6053;51.382;6.768;2023-01-15T12:17:54;2.22;;;0.90;;
11986;SDS011;6053;51.382;6.768;2023-01-15T12:20:46;1.52;;;1.00;;
11986;SDS011;6053;51.382;6.768;2023-01-15T12:26:34;0.88;;;0.88;;
11986;SDS011;6053;51.382;6.768;2023-01-15T12:29:10;1.33;;;0.90;;
11986;SDS011;6053;51.382;6.768;2023-01-15T12:31:45;1.80;;;0.90;;
11986;SDS011;6053;51.382;6.768;2023-01-15T12:34:18;0.98;;;0.70;;
11986;SDS011;6053;51.382;6.768;2023-01-15T12:36:50;1.10;;;0.90;;
11986;SDS011;6053;51.382;6.768;2023-01-15T12:39:23;1.45;;;0.73;;
11986;SDS011;6053;51.382;6.768;2023-01-15T12:41:57;2.88;;;1.17;;
11986;SDS011;6053;51.382;6.768;2023-01-15T12:44:49;1.80;;;0.93;;
11986;SDS011;6053;51.382;6.768;2023-01-15T12:47:31;2.13;;;1.00;;
11986;SDS011;6053;51.382;6.768;2023-01-15T12:50:10;1.80;;;0.90;;
11986;SDS011;6053;51.382;6.768;2023-01-15T12:52:55;2.17;;;0.90;;
11986;SDS011;6053;51.382;6.768;2023-01-15T12:55:30;1.33;;;0.90;;
11986;SDS011;6053;51.382;6.768;2023-01-15T12:58:04;1.23;;;0.77;;
11986;SDS011;6053;51.382;6.768;2023-01-15T13:00:41;1.17;;;0.80;;
11986;SDS011;6053;51.382;6.768;2023-01-15T13:03:15;1.48;;;0.80;;
11986;SDS011;6053;51.382;6.768;2023-01-15T13:05:51;3.65;;;0.90;;
11986;SDS011;6053;51.382;6.768;2023-01-15T13:08:23;1.83;;;0.90;;
11986;SDS011;6053;51.382;6.768;2023-01-15T13:10:56;0.88;;;0.82;;
11986;SDS011;6053;51.382;6.768;2023-01-15T13:13:28;1.42;;;0.90;;
11986;SDS011;6053;51.382;6.768;2023-01-15T13:16:03;0.93;;;0.73;;
11986;SDS011;6053;51.382;6.768;2023-01-15T13:18:45;1.70;;;0.77;;
11986;SDS011;6053;51.382;6.768;2023-01-15T13:21:22;2.38;;;0.88;;
11986;SDS011;6053;51.382;6.768;2023-01-15T13:24:06;1.17;;;0.90;;
11986;SDS011;6053;51.382;6.768;2023-01-15T13:29:55;1.50;;;0.80;;
11986;SDS011;6053;51.382;6.768;2023-01-15T13:32:38;1.50;;;0.90;;
11986;SDS011;6053;51.382;6.768;2023-01-15T13:35:11;1.15;;;0.77;;
11986;SDS011;6053;51.382;6.768;2023-01-15T13:37:48;1.52;;;0.88;;
11986;SDS011;6053;51.382;6.768;2023-01-15T13:40:21;1.27;;;0.80;;
11986;SDS011;6053;51.382;6.768;2023-01-15T13:42:54;1.88;;;0.93;;
11986;SDS011;6053;51.382;6.768;2023-01-15T13:45:33;1.90;;;1.00;;
11986;SDS011;6053;51.382;6.768;2023-01-15T13:48:06;1.73;;;1.00;;
11986;SDS011;6053;51.382;6.768;2023-01-15T13:50:41;1.00;;;0.80;;
11986;SDS011;6053;51.382;6.768;2023-01-15T13:53:21;1.27;;;0.77;;
11986;SDS011;6053;51.382;6.768;2023-01-15T13:55:55;2.45;;;0.98;;
11986;SDS011;6053;51.382;6.768;2023-01-15T13:58:28;0.80;;;0.80;;
11986;SDS011;6053;51.382;6.768;2023-01-15T14:01:02;2.13;;;1.00;;
11986;SDS011;6053;51.382;6.768;2023-01-15T14:03:57;1.77;;;0.85;;
11986;SDS011;6053;51.382;6.768;2023-01-15T14:06:34;1.63;;;1.00;;
11986;SDS011;6053;51.382;6.768;2023-01-15T14:09:05;2.95;;;1.13;;
11986;SDS011;6053;51.382;6.768;2023-01-15T14:11:37;1.00;;;0.90;;
11986;SDS011;6053;51.382;6.768;2023-01-15T14:14:13;22.30;;;1.45;;
11986;SDS011;6053;51.382;6.768;2023-01-15T14:17:17;1.63;;;0.80;;
11986;SDS011;6053;51.382;6.768;2023-01-15T14:20:19;2.20;;;1.00;;
11986;SDS011;6053;51.382;6.768;2023-01-15T14:26:32;1.52;;;0.80;;
11986;SDS011;6053;51.382;6.768;2023-01-15T14:29:27;0.98;;;0.73;;
11986;SDS011;6053;51.382;6.768;2023-01-15T14:32:21;1.73;;;1.10;;
11986;SDS011;6053;51.382;6.768;2023-01-15T14:34:58;1.80;;;0.80;;
11986;SDS011;6053;51.382;6.768;2023-01-15T14:37:30;1.92;;;1.20;;
11986;SDS011;6053;51.382;6.768;2023-01-15T14:40:16;1.77;;;0.90;;
11986;SDS011;6053;51.382;6.768;2023-01-15T14:42:47;1.90;;;0.80;;
11986;SDS011;6053;51.382;6.768;2023-01-15T14:45:32;1.38;;;0.70;;
11986;SDS011;6053;51.382;6.768;2023-01-15T14:48:03;1.10;;;0.70;;
11986;SDS011;6053;51.382;6.768;2023-01-15T14:50:42;1.43;;;0.83;;
11986;SDS011;6053;51.382;6.768;2023-01-15T14:53:25;1.27;;;0.90;;
11986;SDS011;6053;51.382;6.768;2023-01-15T14:56:02;1.65;;;0.88;;
11986;SDS011;6053;51.382;6.768;2023-01-15T14:58:42;0.90;;;0.90;;
11986;SDS011;6053;51.382;6.768;2023-01-15T15:01:17;1.65;;;1.00;;
11986;SDS011;6053;51.382;6.768;2023-01-15T15:04:04;1.43;;;0.90;;
11986;SDS011;6053;51.382;6.768;2023-01-15T15:06:56;0.90;;;0.80;;
11986;SDS011;6053;51.382;6.768;2023-01-15T15:09:30;1.20;;;0.88;;
11986;SDS011;6053;51.382;6.768;2023-01-15T15:14:58;1.80;;;1.00;;
11986;SDS011;6053;51.382;6.768;2023-01-15T15:17:36;1.63;;;0.77;;
11986;SDS011;6053;51.382;6.768;2023-01-15T15:23:00;2.00;;;0.60;;
11986;SDS011;6053;51.382;6.768;2023-01-15T15:25:35;0.88;;;0.80;;
11986;SDS011;6053;51.382;6.768;2023-01-15T15:28:09;1.67;;;0.73;;
11986;SDS011;6053;51.382;6.768;2023-01-15T15:30:39;1.70;;;0.70;;
11986;SDS011;6053;51.382;6.768;2023-01-15T15:33:12;1.75;;;0.90;;
11986;SDS011;6053;51.382;6.768;2023-01-15T15:35:45;1.95;;;1.00;;
11986;SDS011;6053;51.382;6.768;2023-01-15T15:38:18;1.92;;;1.15;;
11986;SDS011;6053;51.382;6.768;2023-01-15T15:40:50;3.08;;;1.02;;
11986;SDS011;6053;51.382;6.768;2023-01-15T15:43:22;1.70;;;0.75;;
11986;SDS011;6053;51.382;6.768;2023-01-15T15:46:21;1.15;;;0.70;;
11986;SDS011;6053;51.382;6.768;2023-01-15T15:49:09;1.85;;;0.90;;
11986;SDS011;6053;51.382;6.768;2023-01-15T15:51:38;1.52;;;0.70;;
11986;SDS011;6053;51.382;6.768;2023-01-15T15:54:12;1.40;;;0.82;;
11986;SDS011;6053;51.382;6.768;2023-01-15T15:56:45;1.10;;;0.70;;
11986;SDS011;6053;51.382;6.768;2023-01-15T15:59:20;1.10;;;0.80;;
11986;SDS011;6053;51.382;6.768;2023-01-15T16:01:56;2.40;;;0.70;;
11986;SDS011;6053;51.382;6.768;2023-01-15T16:04:27;1.90;;;0.90;;
11986;SDS011;6053;51.382;6.768;2023-01-15T16:06:56;1.33;;;0.90;;
11986;SDS011;6053;51.382;6.768;2023-01-15T16:09:24;1.70;;;1.08;;